createdAt,value
2022-10-16T00:00:58.477Z,95363.47
2022-10-16T00:03:27.991Z,95348.63
2022-10-16T00:06:01.312Z,95333.81
2022-10-16T00:08:30.236Z,95323.94
2022-10-16T00:11:09.253Z,95324.25
2022-10-16T00:13:39.223Z,95321.44
2022-10-16T00:16:08.482Z,95306.13
2022-10-16T00:18:35.413Z,95295.59
2022-10-16T00:21:26.283Z,95282.66
2022-10-16T00:24:04.551Z,95270.19
2022-10-16T00:26:33.109Z,95254.19
2022-10-16T00:29:00.023Z,95242.44
2022-10-16T00:31:27.590Z,95231.09
2022-10-16T00:33:54.500Z,95223.97
2022-10-16T00:36:25.513Z,95212.28
2022-10-16T00:38:55.625Z,95191.25
2022-10-16T00:41:24.333Z,95189.63
2022-10-16T00:43:53.809Z,95165.84
2022-10-16T00:46:22.033Z,95158.38
2022-10-16T00:49:06.012Z,95153.66
2022-10-16T00:51:38.417Z,95131.84
2022-10-16T00:54:10.123Z,95133.59
2022-10-16T00:56:36.925Z,95140.72
2022-10-16T00:59:13.599Z,95109.34
2022-10-16T01:01:40.156Z,95097.16
2022-10-16T01:04:06.849Z,95084.19
2022-10-16T01:06:45.260Z,95096.25
2022-10-16T01:09:30.136Z,95091.63
2022-10-16T01:12:16.424Z,95074.50
2022-10-16T01:15:10.120Z,95051.38
2022-10-16T01:17:46.332Z,95008.59
2022-10-16T01:20:32.140Z,94977.78
2022-10-16T01:23:20.336Z,94912.13
2022-10-16T01:26:06.144Z,94914.09
2022-10-16T01:28:58.492Z,94920.44
2022-10-16T01:31:33.126Z,94946.75
2022-10-16T01:34:25.777Z,94942.41
2022-10-16T01:36:56.752Z,94960.66
2022-10-16T01:39:30.707Z,94944.22
2022-10-16T01:42:07.813Z,94953.03
2022-10-16T01:44:37.775Z,94941.91
2022-10-16T01:47:06.707Z,94928.59
2022-10-16T01:49:37.239Z,94917.97
2022-10-16T01:52:09.673Z,94905.16
2022-10-16T01:54:38.914Z,94894.47
2022-10-16T01:57:08.622Z,94897.69
2022-10-16T01:59:39.496Z,94888.44
2022-10-16T02:02:10.585Z,94897.88
2022-10-16T02:05:21.634Z,94893.72
2022-10-16T02:07:49.784Z,94902.56
2022-10-16T02:10:17.726Z,94892.94
2022-10-16T02:12:51.751Z,94898.88
2022-10-16T02:15:18.371Z,94911.78
2022-10-16T02:17:45.013Z,94910.34
2022-10-16T02:20:12.070Z,94922.63
2022-10-16T02:22:48.368Z,94921.78
2022-10-16T02:25:25.991Z,94925.69
2022-10-16T02:28:18.537Z,94928.59
2022-10-16T02:30:52.032Z,94936.91
2022-10-16T02:33:20.964Z,94942.25
2022-10-16T02:35:50.153Z,94945.38
2022-10-16T02:38:18.552Z,94941.31
2022-10-16T02:40:47.128Z,94957.56
2022-10-16T02:43:14.448Z,94955.53
2022-10-16T02:45:41.151Z,94964.03
2022-10-16T02:48:07.854Z,94979.78
2022-10-16T02:50:34.718Z,94972.59
2022-10-16T02:53:01.331Z,94988.59
2022-10-16T02:55:28.935Z,94984.66
2022-10-16T02:57:56.600Z,94981.66
2022-10-16T03:00:23.408Z,94989.94
2022-10-16T03:02:50.036Z,94995.50
2022-10-16T03:05:17.184Z,94986.75
2022-10-16T03:07:45.764Z,95002.28
2022-10-16T03:10:13.088Z,95005.91
2022-10-16T03:12:39.824Z,94993.63
2022-10-16T03:15:07.855Z,95009.78
2022-10-16T03:17:34.617Z,95001.78
2022-10-16T03:20:01.308Z,95011.63
2022-10-16T03:22:27.995Z,95019.75
2022-10-16T03:24:54.635Z,95012.56
2022-10-16T03:27:21.248Z,95033.66
2022-10-16T03:29:47.987Z,95031.16
2022-10-16T03:32:14.599Z,95035.03
2022-10-16T03:34:41.228Z,95038.25
2022-10-16T03:37:07.788Z,95026.41
2022-10-16T03:39:34.420Z,95046.78
2022-10-16T03:42:01.125Z,95042.78
2022-10-16T03:44:27.669Z,95048.59
2022-10-16T03:46:54.323Z,95058.50
2022-10-16T03:49:20.927Z,95052.84
2022-10-16T03:51:47.533Z,95070.19
2022-10-16T03:54:14.269Z,95072.53
2022-10-16T03:56:40.876Z,95077.91
2022-10-16T03:59:07.472Z,95082.13
2022-10-16T04:01:34.047Z,95090.53
2022-10-16T04:04:00.674Z,95082.06
2022-10-16T04:06:27.326Z,95099.69
2022-10-16T04:08:54.969Z,95088.69
2022-10-16T04:11:21.580Z,95095.59
2022-10-16T04:13:48.429Z,95073.28
2022-10-16T04:16:15.249Z,95029.84
2022-10-16T04:18:41.886Z,95039.69
2022-10-16T04:21:09.192Z,95052.97
2022-10-16T04:23:35.957Z,95077.25
2022-10-16T04:26:02.535Z,95102.47
2022-10-16T04:28:29.489Z,95097.63
2022-10-16T04:30:58.448Z,95125.13
2022-10-16T04:33:27.228Z,95123.59
2022-10-16T04:35:58.592Z,95134.44
2022-10-16T04:38:25.611Z,95138.56
2022-10-16T04:40:52.534Z,95142.22
2022-10-16T04:43:19.694Z,95139.97
2022-10-16T04:45:46.988Z,95149.41
2022-10-16T04:48:13.600Z,95144.22
2022-10-16T04:50:40.272Z,95165.75
2022-10-16T04:53:08.381Z,95164.09
2022-10-16T04:55:35.315Z,95167.19
2022-10-16T04:58:02.035Z,95171.53
2022-10-16T05:00:28.672Z,95156.94
2022-10-16T05:02:55.470Z,95162.94
2022-10-16T05:05:22.230Z,95158.56
2022-10-16T05:07:50.665Z,95163.59
2022-10-16T05:10:18.190Z,95179.41
2022-10-16T05:12:44.996Z,95160.25
2022-10-16T05:15:11.696Z,95185.66
2022-10-16T05:17:42.397Z,95189.28
2022-10-16T05:20:13.703Z,95184.00
2022-10-16T05:22:40.208Z,95191.19
2022-10-16T05:25:09.006Z,95178.94
2022-10-16T05:27:35.620Z,95170.31
2022-10-16T05:30:02.180Z,95180.50
2022-10-16T05:32:31.508Z,95167.06
2022-10-16T05:35:00.392Z,95172.25
2022-10-16T05:37:30.688Z,95177.31
2022-10-16T05:39:57.237Z,95170.50
2022-10-16T05:42:23.794Z,95176.56
2022-10-16T05:44:50.360Z,95171.00
2022-10-16T05:47:16.924Z,95174.50
2022-10-16T05:49:44.097Z,95182.75
2022-10-16T05:52:10.696Z,95185.59
2022-10-16T05:54:37.303Z,95202.81
2022-10-16T05:57:03.947Z,95200.09
2022-10-16T05:59:30.612Z,95184.31
2022-10-16T06:01:57.300Z,95191.84
2022-10-16T06:04:24.255Z,95193.28
2022-10-16T06:06:50.911Z,95191.97
2022-10-16T06:09:18.264Z,95196.44
2022-10-16T06:11:44.861Z,95192.31
2022-10-16T06:14:11.436Z,95197.88
2022-10-16T06:16:39.535Z,95204.75
2022-10-16T06:19:08.280Z,95193.75
2022-10-16T06:21:35.065Z,95207.88
2022-10-16T06:24:01.813Z,95196.81
2022-10-16T06:26:30.411Z,95214.75
2022-10-16T06:28:58.922Z,95222.16
2022-10-16T06:31:33.592Z,95213.78
2022-10-16T06:34:00.724Z,95225.00
2022-10-16T06:36:27.637Z,95216.28
2022-10-16T06:38:55.460Z,95223.22
2022-10-16T06:41:23.532Z,95228.75
2022-10-16T06:43:50.323Z,95218.75
2022-10-16T06:46:19.054Z,95230.97
2022-10-16T06:48:45.760Z,95223.13
2022-10-16T06:51:15.541Z,95224.53
2022-10-16T06:54:01.674Z,95236.75
2022-10-16T06:56:34.169Z,95221.78
2022-10-16T06:59:00.903Z,95233.13
2022-10-16T07:01:28.688Z,95234.56
2022-10-16T07:03:55.376Z,95231.38
2022-10-16T07:06:26.319Z,95244.00
2022-10-16T07:08:53.371Z,95232.84
2022-10-16T07:11:22.528Z,95251.25
2022-10-16T07:13:54.324Z,95248.50
2022-10-16T07:16:26.519Z,95243.69
2022-10-16T07:18:59.223Z,95253.19
2022-10-16T07:21:29.952Z,95259.16
2022-10-16T07:23:59.459Z,95255.41
2022-10-16T07:26:27.710Z,95262.69
2022-10-16T07:28:54.619Z,95248.19
2022-10-16T07:31:24.285Z,95263.13
2022-10-16T07:33:52.748Z,95252.75
2022-10-16T07:36:20.730Z,95268.28
2022-10-16T07:38:47.778Z,95277.28
2022-10-16T07:41:17.412Z,95276.56
2022-10-16T07:43:52.534Z,95297.81
2022-10-16T07:46:20.587Z,95289.81
2022-10-16T07:48:49.306Z,95303.78
2022-10-16T07:51:18.931Z,95314.69
2022-10-16T07:53:45.840Z,95299.72
2022-10-16T07:56:13.061Z,95317.81
2022-10-16T07:58:40.261Z,95307.16
2022-10-16T08:01:09.181Z,95323.91
2022-10-16T08:03:38.018Z,95330.63
2022-10-16T08:06:05.779Z,95325.25
2022-10-16T08:08:32.487Z,95337.50
2022-10-16T08:10:59.806Z,95332.38
2022-10-16T08:13:27.581Z,95342.41
2022-10-16T08:15:55.516Z,95353.50
2022-10-16T08:18:24.128Z,95361.19
2022-10-16T08:20:58.152Z,95365.72
2022-10-16T08:23:26.909Z,95378.31
2022-10-16T08:25:57.691Z,95374.22
2022-10-16T08:28:24.632Z,95384.47
2022-10-16T08:30:51.357Z,95401.59
2022-10-16T08:33:19.857Z,95384.31
2022-10-16T08:35:55.601Z,95398.34
2022-10-16T08:38:22.752Z,95391.81
2022-10-16T08:40:52.734Z,95397.88
2022-10-16T08:43:35.903Z,95415.09
2022-10-16T08:46:10.240Z,95402.34
2022-10-16T08:48:51.751Z,95422.94
2022-10-16T08:51:20.684Z,95432.94
2022-10-16T08:54:15.072Z,95431.56
2022-10-16T08:56:44.028Z,95434.63
2022-10-16T08:59:21.473Z,95429.03
2022-10-16T09:01:52.413Z,95430.00
2022-10-16T09:04:55.568Z,95439.25
2022-10-16T09:07:24.174Z,95452.38
2022-10-16T09:10:15.260Z,95472.66
2022-10-16T09:12:54.389Z,95516.91
2022-10-16T09:15:36.288Z,95547.06
2022-10-16T09:18:05.565Z,95567.06
2022-10-16T09:20:54.917Z,95646.28
2022-10-16T09:23:30.004Z,95670.16
2022-10-16T09:25:59.256Z,95779.94
2022-10-16T09:28:26.232Z,95832.63
2022-10-16T09:30:53.365Z,95927.72
2022-10-16T09:33:23.320Z,96063.31
2022-10-16T09:35:52.071Z,96086.19
2022-10-16T09:38:30.411Z,96205.16
2022-10-16T09:41:03.177Z,96207.03
2022-10-16T09:43:41.756Z,96285.47
2022-10-16T09:46:29.850Z,96319.28
2022-10-16T09:49:02.885Z,96312.63
2022-10-16T09:51:35.412Z,96330.47
2022-10-16T09:54:11.377Z,96314.41
2022-10-16T09:56:40.232Z,96331.13
2022-10-16T09:59:22.122Z,96359.06
2022-10-16T10:01:56.296Z,96559.88
2022-10-16T10:04:27.006Z,96592.13
2022-10-16T10:06:58.943Z,96638.44
2022-10-16T10:09:39.947Z,96606.50
2022-10-16T10:12:19.719Z,96665.63
2022-10-16T10:14:51.357Z,96734.16
2022-10-16T10:17:29.179Z,96720.84
2022-10-16T10:20:18.909Z,96872.00
2022-10-16T10:22:49.305Z,96869.28
2022-10-16T10:25:35.923Z,96950.63
2022-10-16T10:28:14.705Z,96912.50
2022-10-16T10:31:07.366Z,96912.50
2022-10-16T10:34:27.984Z,96900.06
2022-10-16T10:37:25.546Z,96907.06
2022-10-16T10:40:08.571Z,96940.53
2022-10-16T10:42:46.224Z,96960.03
2022-10-16T10:45:26.808Z,96923.44
2022-10-16T10:48:11.799Z,96932.00
2022-10-16T10:50:46.671Z,96986.09
2022-10-16T10:53:42.525Z,96972.47
2022-10-16T10:56:34.672Z,96962.34
2022-10-16T10:59:34.259Z,96986.38
2022-10-16T11:02:24.515Z,96979.34
2022-10-16T11:05:02.697Z,96953.66
2022-10-16T11:07:35.875Z,96974.59
2022-10-16T11:10:14.964Z,96967.53
2022-10-16T11:12:45.623Z,96952.75
2022-10-16T11:15:34.199Z,96951.97
2022-10-16T11:18:25.776Z,96954.94
2022-10-16T11:20:57.359Z,96949.50
2022-10-16T11:23:31.748Z,96944.53
2022-10-16T11:26:03.367Z,96936.31
2022-10-16T11:28:45.525Z,96922.44
2022-10-16T11:31:25.404Z,96921.69
2022-10-16T11:34:08.156Z,96961.34
2022-10-16T11:36:45.691Z,96946.22
2022-10-16T11:39:27.837Z,96939.66
2022-10-16T11:42:00.755Z,96981.13
2022-10-16T11:44:46.130Z,96955.84
2022-10-16T11:47:57.602Z,96938.00
2022-10-16T11:50:41.880Z,96897.34
2022-10-16T11:53:22.992Z,96883.41
2022-10-16T11:55:50.099Z,96878.78
2022-10-16T11:58:23.879Z,96869.72
2022-10-16T12:01:20.271Z,96837.91
2022-10-16T12:03:59.572Z,96846.88
2022-10-16T12:07:00.763Z,96893.47
2022-10-16T12:09:31.443Z,96897.03
2022-10-16T12:11:59.431Z,96911.09
2022-10-16T12:14:51.729Z,96958.06
2022-10-16T12:17:28.109Z,96963.63
2022-10-16T12:20:01.165Z,96967.59
2022-10-16T12:22:31.359Z,97049.94
2022-10-16T12:24:58.831Z,97037.59
2022-10-16T12:27:35.608Z,97031.44
2022-10-16T12:30:06.868Z,97076.25
2022-10-16T12:32:47.080Z,97082.06
2022-10-16T12:35:23.970Z,97053.41
2022-10-16T12:37:53.429Z,97053.50
2022-10-16T12:40:35.537Z,97083.09
2022-10-16T12:43:23.002Z,97096.38
2022-10-16T12:46:05.170Z,97076.91
2022-10-16T12:48:42.361Z,97097.13
2022-10-16T12:51:30.756Z,97081.47
2022-10-16T12:54:15.459Z,97048.06
2022-10-16T12:56:46.325Z,97029.75
2022-10-16T12:59:38.995Z,97027.38
2022-10-16T13:02:19.872Z,97014.16
2022-10-16T13:05:18.607Z,97002.84
2022-10-16T13:07:57.412Z,97005.41
2022-10-16T13:10:34.309Z,96975.50
2022-10-16T13:13:38.152Z,96968.53
2022-10-16T13:16:19.907Z,96948.91
2022-10-16T13:19:04.314Z,96943.91
2022-10-16T13:21:47.280Z,96946.28
2022-10-16T13:24:47.995Z,96922.44
2022-10-16T13:27:39.253Z,96885.91
2022-10-16T13:30:17.851Z,96881.66
2022-10-16T13:33:01.055Z,96864.06
2022-10-16T13:35:30.980Z,96801.84
2022-10-16T13:38:16.639Z,96813.16
2022-10-16T13:40:55.331Z,96804.94
2022-10-16T13:43:44.308Z,96776.97
2022-10-16T13:46:19.247Z,96780.84
2022-10-16T13:48:57.119Z,96755.91
2022-10-16T13:53:52.831Z,96748.97
2022-10-16T13:56:24.688Z,96715.50
2022-10-16T13:59:08.991Z,96680.88
2022-10-16T14:01:47.295Z,96672.72
2022-10-16T14:04:17.383Z,96619.81
2022-10-16T14:06:48.989Z,96581.38
2022-10-16T14:09:27.561Z,96585.66
2022-10-16T14:12:11.135Z,96522.69
2022-10-16T14:15:03.940Z,96498.22
2022-10-16T14:17:33.221Z,96519.59
2022-10-16T14:20:06.141Z,96522.69
2022-10-16T14:22:43.403Z,96513.38
2022-10-16T14:25:22.552Z,96414.72
2022-10-16T14:28:19.927Z,96399.19
2022-10-16T14:30:58.355Z,96347.56
2022-10-16T14:33:26.408Z,96266.47
2022-10-16T14:36:13.455Z,96239.69
2022-10-16T14:38:42.968Z,96133.03
2022-10-16T14:41:10.504Z,96136.53
2022-10-16T14:43:42.300Z,96074.16
2022-10-16T14:46:18.749Z,96050.47
2022-10-16T14:48:49.844Z,95999.31
2022-10-16T14:51:20.712Z,95930.34
2022-10-16T14:53:48.042Z,95881.06
2022-10-16T14:56:25.798Z,95814.47
2022-10-16T14:58:53.659Z,95810.88
2022-10-16T15:01:21.261Z,95778.81
2022-10-16T15:03:48.396Z,95733.03
2022-10-16T15:06:18.662Z,95717.50
2022-10-16T15:08:46.119Z,95658.28
2022-10-16T15:11:22.276Z,95655.41
2022-10-16T15:13:48.920Z,95612.59
2022-10-16T15:16:17.685Z,95590.38
2022-10-16T15:18:44.744Z,95576.13
2022-10-16T15:21:29.847Z,95534.75
2022-10-16T15:23:57.743Z,95518.34
2022-10-16T15:26:32.100Z,95480.56
2022-10-16T15:28:58.943Z,95463.31
2022-10-16T15:31:25.952Z,95444.84
2022-10-16T15:33:57.029Z,95425.50
2022-10-16T15:36:32.090Z,95429.31
2022-10-16T15:39:00.824Z,95423.28
2022-10-16T15:41:27.604Z,95416.59
2022-10-16T15:43:54.264Z,95406.22
2022-10-16T15:46:22.865Z,95382.97
2022-10-16T15:48:50.997Z,95362.38
2022-10-16T15:51:19.517Z,95355.22
2022-10-16T15:53:47.472Z,95340.31
2022-10-16T15:56:17.251Z,95329.50
2022-10-16T15:58:46.295Z,95308.13
2022-10-16T16:01:12.927Z,95295.16
2022-10-16T16:03:43.491Z,95286.88
2022-10-16T16:06:12.196Z,95269.72
2022-10-16T16:08:40.497Z,95259.66
2022-10-16T16:11:11.605Z,95256.97
2022-10-16T16:13:39.203Z,95236.97
2022-10-16T16:16:10.949Z,95242.22
2022-10-16T16:18:38.336Z,95226.88
2022-10-16T16:21:05.771Z,95223.13
2022-10-16T16:23:33.144Z,95216.16
2022-10-16T16:26:11.838Z,95205.91
2022-10-16T16:28:40.129Z,95196.41
2022-10-16T16:31:06.939Z,95188.03
2022-10-16T16:33:34.285Z,95182.31
2022-10-16T16:36:02.411Z,95179.59
2022-10-16T16:38:29.548Z,95168.97
2022-10-16T16:40:56.671Z,95178.53
2022-10-16T16:43:28.079Z,95181.84
2022-10-16T16:45:55.548Z,95183.94
2022-10-16T16:48:22.484Z,95181.94
2022-10-16T16:50:49.303Z,95181.91
2022-10-16T16:53:15.932Z,95184.84
2022-10-16T16:55:42.528Z,95178.06
2022-10-16T16:58:09.155Z,95192.22
2022-10-16T17:00:35.899Z,95183.25
2022-10-16T17:03:05.577Z,95192.09
2022-10-16T17:05:32.333Z,95203.16
2022-10-16T17:07:59.762Z,95204.47
2022-10-16T17:10:27.005Z,95210.94
2022-10-16T17:15:21.865Z,95211.63
2022-10-16T17:17:48.576Z,95217.91
2022-10-16T17:20:15.150Z,95201.44
2022-10-16T17:22:41.797Z,95221.44
2022-10-16T17:25:08.744Z,95220.94
2022-10-16T17:27:36.486Z,95215.50
2022-10-16T17:30:05.011Z,95222.16
2022-10-16T17:32:31.729Z,95211.50
2022-10-16T17:34:58.377Z,95227.28
2022-10-16T17:37:27.192Z,95216.28
2022-10-16T17:39:53.797Z,95223.75
2022-10-16T17:42:20.423Z,95225.00
2022-10-16T17:44:47.105Z,95220.16
2022-10-16T17:47:13.851Z,95229.69
2022-10-16T17:49:40.996Z,95217.09
2022-10-16T17:52:07.687Z,95228.03
2022-10-16T17:54:34.695Z,95232.78
2022-10-16T17:57:01.364Z,95237.31
2022-10-16T17:59:30.554Z,95238.28
2022-10-16T18:01:57.349Z,95234.91
2022-10-16T18:04:24.030Z,95251.84
2022-10-16T18:06:51.001Z,95270.41
2022-10-16T18:09:20.895Z,95278.59
2022-10-16T18:11:51.519Z,95328.72
2022-10-16T18:14:18.267Z,95318.91
2022-10-16T18:16:45.061Z,95357.94
2022-10-16T18:19:12.606Z,95376.44
2022-10-16T18:21:39.352Z,95411.31
2022-10-16T18:24:06.231Z,95463.34
2022-10-16T18:26:33.362Z,95477.91
2022-10-16T18:29:01.350Z,95526.09
2022-10-16T18:31:28.464Z,95560.91
2022-10-16T18:33:57.953Z,95592.66
2022-10-16T18:36:30.454Z,95628.72
2022-10-16T18:38:57.825Z,95641.44
2022-10-16T18:41:24.967Z,95694.94
2022-10-16T18:43:52.267Z,95713.50
2022-10-16T18:46:28.993Z,95737.53
2022-10-16T18:48:57.490Z,95747.59
2022-10-16T18:51:27.877Z,95760.72
2022-10-16T18:53:58.099Z,95798.69
2022-10-16T18:56:25.882Z,95790.94
2022-10-16T18:58:53.814Z,95817.25
2022-10-16T19:01:24.542Z,95814.91
2022-10-16T19:03:57.129Z,95823.44
2022-10-16T19:06:23.929Z,95842.03
2022-10-16T19:08:51.486Z,95838.94
2022-10-16T19:11:20.435Z,95864.47
2022-10-16T19:13:48.361Z,95867.97
2022-10-16T19:16:21.735Z,95866.03
2022-10-16T19:18:50.693Z,95878.41
2022-10-16T19:21:17.581Z,95866.41
2022-10-16T19:23:44.625Z,95882.28
2022-10-16T19:26:15.242Z,95875.31
2022-10-16T19:28:42.666Z,95876.09
2022-10-16T19:31:12.463Z,95866.06
2022-10-16T19:33:40.199Z,95859.06
2022-10-16T19:36:14.750Z,95866.03
2022-10-16T19:38:41.663Z,95861.00
2022-10-16T19:41:12.057Z,95847.84
2022-10-16T19:43:41.510Z,95843.63
2022-10-16T19:46:13.905Z,95848.63
2022-10-16T19:48:43.366Z,95846.28
2022-10-16T19:51:16.988Z,95842.03
2022-10-16T19:53:47.098Z,95848.63
2022-10-16T19:56:16.219Z,95852.88
2022-10-16T19:58:46.296Z,95851.72
2022-10-16T20:01:14.576Z,95852.88
2022-10-16T20:03:46.160Z,95845.13
2022-10-16T20:06:13.944Z,95855.97
2022-10-16T20:08:43.276Z,95848.22
2022-10-16T20:11:18.337Z,95847.06
2022-10-16T20:13:45.130Z,95866.41
2022-10-16T20:16:13.658Z,95849.00
2022-10-16T20:18:41.099Z,95876.88
2022-10-16T20:21:15.246Z,95886.91
2022-10-16T20:23:42.404Z,95890.75
2022-10-16T20:26:14.380Z,95917.09
2022-10-16T20:28:42.613Z,95918.63
2022-10-16T20:31:15.939Z,95937.22
2022-10-16T20:33:42.525Z,95955.78
2022-10-16T20:36:14.028Z,95956.56
2022-10-16T20:38:43.655Z,95975.91
2022-10-16T20:41:13.142Z,95960.06
2022-10-16T20:46:14.977Z,96009.59
2022-10-16T20:48:44.857Z,96025.44
2022-10-16T20:51:32.056Z,96071.09
2022-10-16T20:54:04.447Z,96096.63
2022-10-16T20:56:36.286Z,96117.19
2022-10-16T20:59:03.837Z,96163.19
2022-10-16T21:01:33.864Z,96160.50
2022-10-16T21:04:02.931Z,96207.31
2022-10-16T21:06:32.820Z,96229.75
2022-10-16T21:09:05.428Z,96241.00
2022-10-16T21:11:36.600Z,96265.72
2022-10-16T21:14:07.732Z,96273.53
2022-10-16T21:16:34.864Z,96314.88
2022-10-16T21:19:01.663Z,96326.47
2022-10-16T21:21:33.565Z,96334.28
2022-10-16T21:24:00.472Z,96355.13
2022-10-16T21:26:28.119Z,96364.44
2022-10-16T21:29:02.889Z,96383.75
2022-10-16T21:31:29.929Z,96392.59
2022-10-16T21:33:56.653Z,96396.22
2022-10-16T21:36:29.256Z,96430.91
2022-10-16T21:38:56.568Z,96429.38
2022-10-16T21:41:26.997Z,96429.41
2022-10-16T21:43:54.852Z,96447.91
2022-10-16T21:46:24.295Z,96447.97
2022-10-16T21:48:55.075Z,96468.03
2022-10-16T21:51:29.551Z,96484.28
2022-10-16T21:53:56.427Z,96488.19
2022-10-16T21:56:23.572Z,96505.13
2022-10-16T21:58:50.410Z,96505.53
2022-10-16T22:01:20.110Z,96511.69
2022-10-16T22:03:47.394Z,96530.47
2022-10-16T22:06:16.695Z,96508.13
2022-10-16T22:08:47.548Z,96530.53
2022-10-16T22:11:22.053Z,96526.16
2022-10-16T22:13:54.046Z,96522.03
2022-10-16T22:16:26.632Z,96528.16
2022-10-16T22:18:58.521Z,96529.78
2022-10-16T22:21:26.667Z,96528.69
2022-10-16T22:23:53.351Z,96545.19
2022-10-16T22:26:19.933Z,96538.72
2022-10-16T22:28:46.711Z,96553.78
2022-10-16T22:31:14.584Z,96559.94
2022-10-16T22:33:41.744Z,96571.28
2022-10-16T22:36:13.674Z,96595.50
2022-10-16T22:38:40.926Z,96592.13
2022-10-16T22:41:14.631Z,96602.63
2022-10-16T22:43:44.069Z,96616.75
2022-10-16T22:46:13.938Z,96615.63
2022-10-16T22:48:40.992Z,96621.75
2022-10-16T22:51:09.648Z,96642.16
2022-10-16T22:53:36.400Z,96642.66
2022-10-16T22:56:03.892Z,96691.72
2022-10-16T22:58:30.625Z,96690.47
2022-10-16T23:03:24.261Z,96715.66
2022-10-16T23:05:51.428Z,96735.03
2022-10-16T23:08:20.208Z,96730.91
2022-10-16T23:10:49.647Z,96749.72
2022-10-16T23:13:18.187Z,96762.09
2022-10-16T23:15:44.879Z,96767.22
2022-10-16T23:18:11.980Z,96786.78
2022-10-16T23:20:41.934Z,96802.72
2022-10-16T23:23:09.053Z,96825.88
2022-10-16T23:25:36.464Z,96836.56
2022-10-16T23:28:04.533Z,96840.47
2022-10-16T23:30:31.182Z,96838.94
2022-10-16T23:32:57.932Z,96858.06
2022-10-16T23:35:26.393Z,96860.06
2022-10-16T23:37:53.154Z,96878.03
2022-10-16T23:40:19.823Z,96863.97
2022-10-16T23:42:46.698Z,96845.97
2022-10-16T23:45:13.272Z,96872.22
2022-10-16T23:47:41.507Z,96870.59
2022-10-16T23:50:09.621Z,96871.19
2022-10-16T23:52:36.863Z,96894.59
2022-10-16T23:55:04.156Z,96897.22
2022-10-16T23:57:30.895Z,96889.28
2022-10-16T23:59:57.863Z,96907.34
